createdAt,value
2022-08-16T00:03:07.744Z,99070.22
2022-08-16T00:09:15.784Z,99056.19
2022-08-16T00:15:51.432Z,99062.22
2022-08-16T00:21:57.086Z,99096.38
2022-08-16T00:28:04.772Z,99098.91
2022-08-16T00:34:08.433Z,99082.91
2022-08-16T00:40:33.684Z,99106.06
2022-08-16T00:46:54.050Z,99119.66
2022-08-16T00:53:08.672Z,99055.66
2022-08-16T00:59:15.265Z,99107.78
2022-08-16T01:05:19.129Z,99073.53
2022-08-16T01:11:27.295Z,99088.66
2022-08-16T01:17:36.578Z,99016.50
2022-08-16T01:24:51.866Z,99075.97
2022-08-16T01:30:49.955Z,99073.28
2022-08-16T01:37:01.461Z,99093.16
2022-08-16T01:43:05.753Z,99073.22
2022-08-16T01:49:12.803Z,99062.72
2022-08-16T01:55:18.474Z,99026.91
2022-08-16T02:01:20.584Z,99042.34
2022-08-16T02:07:23.780Z,99068.28
2022-08-16T02:13:27.738Z,99075.44
2022-08-16T02:19:59.454Z,99078.25
2022-08-16T02:25:59.529Z,99082.38
2022-08-16T02:32:03.380Z,99065.03
2022-08-16T02:38:24.097Z,99089.56
2022-08-16T02:44:26.964Z,99093.72
2022-08-16T02:50:54.696Z,99121.09
2022-08-16T02:56:52.072Z,99115.00
2022-08-16T03:02:56.507Z,99058.00
2022-08-16T03:08:58.556Z,99138.47
2022-08-16T03:15:01.804Z,99123.06
2022-08-16T03:21:03.869Z,99107.91
2022-08-16T03:27:06.999Z,99104.28
2022-08-16T03:33:11.640Z,99142.94
2022-08-16T03:39:15.126Z,99146.81
2022-08-16T03:45:27.271Z,99134.94
2022-08-16T03:51:33.093Z,99133.59
2022-08-16T03:57:36.359Z,99133.91
2022-08-16T04:03:38.377Z,99109.41
2022-08-16T04:09:40.207Z,99079.84
2022-08-16T04:15:42.169Z,99142.38
2022-08-16T04:21:45.952Z,99157.00
2022-08-16T04:27:54.256Z,99154.19
2022-08-16T04:33:59.540Z,99185.41
2022-08-16T04:40:01.304Z,99226.50
2022-08-16T04:46:32.015Z,99202.53
2022-08-16T04:52:34.595Z,99202.22
2022-08-16T04:58:44.009Z,99169.06
2022-08-16T05:04:47.973Z,99198.63
2022-08-16T05:10:50.060Z,99170.72
2022-08-16T05:16:52.109Z,99125.78
2022-08-16T05:22:54.228Z,99111.34
2022-08-16T05:28:58.719Z,99139.16
2022-08-16T05:35:01.164Z,99112.13
2022-08-16T05:41:03.904Z,99072.16
2022-08-16T05:47:05.826Z,99130.63
2022-08-16T05:53:10.075Z,99117.13
2022-08-16T05:59:13.396Z,99129.78
2022-08-16T06:05:15.844Z,99132.22
2022-08-16T06:11:17.835Z,99119.84
2022-08-16T06:17:21.537Z,99110.97
2022-08-16T06:23:24.398Z,99126.09
2022-08-16T06:29:26.510Z,99072.06
2022-08-16T06:35:40.279Z,99078.09
2022-08-16T06:41:42.320Z,99093.28
2022-08-16T06:47:54.110Z,99051.16
2022-08-16T06:53:58.289Z,99064.06
2022-08-16T07:00:00.125Z,99106.09
2022-08-16T07:06:04.805Z,99079.59
2022-08-16T07:12:07.223Z,99147.41
2022-08-16T07:18:11.338Z,99143.66
2022-08-16T07:24:30.495Z,99178.41
2022-08-16T07:30:39.655Z,99216.44
2022-08-16T07:36:57.880Z,99203.81
2022-08-16T07:43:00.811Z,99213.44
2022-08-16T07:49:04.965Z,99236.06
2022-08-16T07:55:15.318Z,99199.94
2022-08-16T08:01:17.431Z,99221.97
2022-08-16T08:07:19.384Z,99177.31
2022-08-16T08:13:41.822Z,99236.31
2022-08-16T08:19:45.853Z,99219.22
2022-08-16T08:25:56.022Z,99226.13
2022-08-16T08:31:57.890Z,99213.13
2022-08-16T08:38:00.199Z,99188.59
2022-08-16T08:44:29.464Z,99127.09
2022-08-16T08:50:32.249Z,99220.34
2022-08-16T08:56:45.479Z,99251.22
2022-08-16T09:02:52.260Z,99240.75
2022-08-16T09:08:54.739Z,99245.16
2022-08-16T09:15:00.573Z,99223.91
2022-08-16T09:21:02.429Z,99244.59
2022-08-16T09:27:05.571Z,99220.78
2022-08-16T09:33:07.708Z,99217.50
2022-08-16T09:39:16.341Z,99188.34
2022-08-16T09:45:18.757Z,99185.66
2022-08-16T09:51:34.354Z,99195.56
2022-08-16T09:57:41.755Z,99179.59
2022-08-16T10:04:01.924Z,99183.16
2022-08-16T10:10:09.787Z,99191.56
2022-08-16T10:22:17.268Z,99141.59
2022-08-16T10:28:28.529Z,99161.69
2022-08-16T10:34:32.763Z,99161.69
2022-08-16T10:40:35.695Z,99131.31
2022-08-16T10:46:41.984Z,99112.00
2022-08-16T10:52:44.762Z,99204.09
2022-08-16T10:58:51.765Z,99131.88
2022-08-16T11:05:10.694Z,99207.97
2022-08-16T11:11:19.543Z,99211.28
2022-08-16T11:17:22.230Z,99173.50
2022-08-16T11:23:25.789Z,99195.31
2022-08-16T11:29:27.636Z,99194.22
2022-08-16T11:41:54.182Z,99164.63
2022-08-16T11:47:56.028Z,99216.47
2022-08-16T11:53:58.439Z,99210.94
2022-08-16T12:00:00.852Z,99190.84
2022-08-16T12:06:25.311Z,99222.00
2022-08-16T12:12:32.873Z,99204.06
2022-08-16T12:18:37.791Z,99225.84
2022-08-16T12:24:41.634Z,99199.38
2022-08-16T12:30:46.928Z,99203.44
2022-08-16T12:36:48.847Z,99182.28
2022-08-16T12:42:53.552Z,99220.03
2022-08-16T12:48:58.272Z,99209.56
2022-08-16T12:55:01.213Z,99188.66
2022-08-16T13:01:03.997Z,99200.25
2022-08-16T13:07:08.566Z,99081.34
2022-08-16T13:13:11.017Z,99122.59
2022-08-16T13:19:13.113Z,99151.28
2022-08-16T13:25:21.246Z,99201.75
2022-08-16T13:31:23.982Z,99203.41
2022-08-16T13:37:25.983Z,99173.41
2022-08-16T13:43:29.048Z,99204.53
2022-08-16T13:49:35.591Z,99202.28
2022-08-16T13:55:37.525Z,99148.22
2022-08-16T14:01:43.232Z,99163.88
2022-08-16T14:07:52.571Z,99179.09
2022-08-16T14:13:54.901Z,99119.56
2022-08-16T14:19:59.973Z,99174.38
2022-08-16T14:26:02.507Z,99161.44
2022-08-16T14:32:07.789Z,99126.09
2022-08-16T14:38:11.272Z,99123.31
2022-08-16T14:44:19.897Z,99130.47
2022-08-16T14:50:25.630Z,99135.41
2022-08-16T14:56:38.429Z,99146.22
2022-08-16T15:02:45.273Z,99169.84
2022-08-16T15:08:48.017Z,99151.69
2022-08-16T15:14:52.292Z,99149.44
2022-08-16T15:20:54.614Z,99135.91
2022-08-16T15:26:56.958Z,99079.97
2022-08-16T15:33:05.492Z,99114.34
2022-08-16T15:39:25.611Z,99154.28
2022-08-16T15:45:48.276Z,99153.47
2022-08-16T15:51:57.763Z,99165.06
2022-08-16T15:58:01.128Z,99173.94
2022-08-16T16:04:25.848Z,99165.19
2022-08-16T16:10:29.316Z,99156.41
2022-08-16T16:16:31.784Z,99145.91
2022-08-16T16:22:34.257Z,99169.94
2022-08-16T16:29:05.073Z,99190.06
2022-08-16T16:34:59.009Z,99191.75
2022-08-16T16:41:09.418Z,99140.75
2022-08-16T16:47:11.680Z,99177.38
2022-08-16T16:53:17.143Z,99194.03
2022-08-16T16:59:20.171Z,99115.72
2022-08-16T17:05:23.201Z,99183.06
2022-08-16T17:11:26.032Z,99189.69
2022-08-16T17:17:36.131Z,99174.28
2022-08-16T17:23:58.052Z,99195.75
2022-08-16T17:30:01.259Z,99184.47
2022-08-16T17:36:03.581Z,99194.41
2022-08-16T17:42:15.749Z,99153.34
2022-08-16T17:48:19.085Z,99155.56
2022-08-16T17:54:30.149Z,99182.94
2022-08-16T18:00:32.863Z,99226.81
2022-08-16T18:06:34.667Z,99218.00
2022-08-16T18:12:44.759Z,99216.91
2022-08-16T18:18:53.359Z,99236.78
2022-08-16T18:24:56.319Z,99198.66
2022-08-16T18:31:01.127Z,99234.06
2022-08-16T18:37:05.809Z,99182.75
2022-08-16T18:43:14.092Z,99202.09
2022-08-16T18:49:17.849Z,99248.44
2022-08-16T18:55:21.411Z,99248.44
2022-08-16T19:01:24.115Z,99231.31
2022-08-16T19:07:30.716Z,99271.31
2022-08-16T19:13:34.570Z,99205.38
2022-08-16T19:19:36.286Z,99255.34
2022-08-16T19:25:47.566Z,99262.81
2022-08-16T19:31:51.231Z,99286.25
2022-08-16T19:37:54.013Z,99269.47
2022-08-16T19:43:55.797Z,99227.78
2022-08-16T19:49:58.071Z,99301.22
2022-08-16T19:55:59.953Z,99266.13
2022-08-16T20:02:02.408Z,99252.59
2022-08-16T20:08:04.755Z,99246.25
2022-08-16T20:14:06.604Z,99213.16
2022-08-16T20:20:08.778Z,99285.50
2022-08-16T20:26:13.811Z,99284.09
2022-08-16T20:32:23.965Z,99286.59
2022-08-16T20:38:27.458Z,99279.38
2022-08-16T20:44:29.333Z,99252.34
2022-08-16T20:50:32.010Z,99284.38
2022-08-16T20:56:33.710Z,99268.94
2022-08-16T21:02:35.422Z,99275.63
2022-08-16T21:08:51.989Z,99270.84
2022-08-16T21:14:55.563Z,99269.72
2022-08-16T21:20:57.344Z,99262.00
2022-08-16T21:26:59.073Z,99260.63
2022-08-16T21:33:10.081Z,99262.00
2022-08-16T21:39:11.851Z,99216.22
2022-08-16T21:45:14.534Z,99242.72
2022-08-16T21:51:16.290Z,99247.38
2022-08-16T21:57:22.801Z,99211.00
2022-08-16T22:03:25.370Z,99197.78
2022-08-16T22:09:27.261Z,99258.75
2022-08-16T22:15:28.968Z,99253.50
2022-08-16T22:21:32.004Z,99208.81
2022-08-16T22:27:33.765Z,99252.94
2022-08-16T22:33:35.512Z,99243.56
2022-08-16T22:39:37.322Z,99254.63
2022-08-16T22:45:39.385Z,99246.06
2022-08-16T22:51:42.362Z,99215.47
2022-08-16T22:57:44.494Z,99213.22
2022-08-16T23:03:46.274Z,99211.56
2022-08-16T23:09:48.038Z,99229.78
2022-08-16T23:15:57.087Z,99236.44
2022-08-16T23:22:00.820Z,99237.50
2022-08-16T23:28:03.577Z,99198.34
2022-08-16T23:34:05.349Z,99230.59
2022-08-16T23:40:11.737Z,99238.63
2022-08-16T23:46:17.092Z,99236.41
2022-08-16T23:52:19.212Z,99230.88
2022-08-16T23:58:47.013Z,99235.56
